createdAt,value
2022-09-03T00:00:01.617Z,169.752
2022-09-03T00:05:01.523Z,177.738
2022-09-03T00:10:01.501Z,271.656
2022-09-03T00:15:01.559Z,262.491
2022-09-03T00:20:01.719Z,256.82800000000003
2022-09-03T00:25:01.542Z,158.629
2022-09-03T00:30:01.501Z,146.875
2022-09-03T00:35:01.581Z,147.139
2022-09-03T00:40:01.677Z,174.644
2022-09-03T00:45:01.619Z,183.395
2022-09-03T00:50:01.564Z,204.376
2022-09-03T00:55:01.697Z,298.446
2022-09-03T01:00:01.590Z,287.717
2022-09-03T01:05:01.546Z,281.633
2022-09-03T01:10:01.613Z,230.336
2022-09-03T01:15:01.760Z,171.36
2022-09-03T01:20:01.683Z,174.81900000000002
2022-09-03T01:25:01.533Z,170.75900000000001
2022-09-03T01:30:01.804Z,171.904
2022-09-03T01:35:01.753Z,155.092
2022-09-03T01:40:01.729Z,230.886
2022-09-03T01:45:01.607Z,270.979
2022-09-03T01:50:01.741Z,264.606
2022-09-03T01:55:01.586Z,219.597
2022-09-03T02:00:01.585Z,150.893
2022-09-03T02:05:01.603Z,151.733
2022-09-03T02:10:01.967Z,162.947
2022-09-03T02:15:01.648Z,184.496
2022-09-03T02:20:01.697Z,185.842
2022-09-03T02:25:01.638Z,252.20000000000002
2022-09-03T02:30:01.791Z,292.327
2022-09-03T02:35:01.601Z,285.149
2022-09-03T02:40:01.730Z,268.039
2022-09-03T02:45:01.634Z,171.647
2022-09-03T02:50:01.853Z,172.05
2022-09-03T02:55:01.634Z,170.715
2022-09-03T03:00:01.643Z,170.28300000000002
2022-09-03T03:05:01.774Z,156.966
2022-09-03T03:10:01.696Z,203.248
2022-09-03T03:15:01.734Z,265.73900000000003
2022-09-03T03:20:01.657Z,259.494
2022-09-03T03:25:01.825Z,227.978
2022-09-03T03:30:01.646Z,147.168
2022-09-03T03:35:01.700Z,146.816
2022-09-03T03:40:01.733Z,150.627
2022-09-03T03:45:01.851Z,172.056
2022-09-03T03:50:01.701Z,175.412
2022-09-03T03:55:01.751Z,251.906
2022-09-03T04:00:01.674Z,301.327
2022-09-03T04:05:01.847Z,288.635
2022-09-03T04:10:01.694Z,263.732
2022-09-03T04:15:01.694Z,172.479
2022-09-03T04:20:01.700Z,172.603
2022-09-03T04:25:01.949Z,171.68200000000002
2022-09-03T04:30:01.859Z,172.697
2022-09-03T04:35:01.834Z,171.114
2022-09-03T04:40:01.881Z,221.419
2022-09-03T04:45:02.230Z,264.211
2022-09-03T04:50:01.750Z,257.741
2022-09-03T04:55:01.714Z,230.317
2022-09-03T05:00:01.724Z,147.596
2022-09-03T05:05:01.946Z,192.14600000000002
2022-09-03T05:10:01.765Z,196.235
2022-09-03T05:15:01.746Z,206.016
2022-09-03T05:20:01.834Z,220.976
2022-09-03T05:25:01.760Z,291.693
2022-09-03T05:30:01.763Z,335.379
2022-09-03T05:35:01.831Z,1273.541
2022-09-03T05:40:01.941Z,1298.266
2022-09-03T05:45:01.986Z,478.547
2022-09-03T05:50:01.795Z,472.363
2022-09-03T05:55:01.805Z,2565.425
2022-09-03T06:00:01.977Z,3134.016
2022-09-03T06:05:01.796Z,2423.34
2022-09-03T06:10:01.796Z,532.979
2022-09-03T06:15:01.788Z,678.557
2022-09-03T06:20:02.033Z,3589.04
2022-09-03T06:25:01.848Z,2402.42
2022-09-03T06:30:01.819Z,448.163
2022-09-03T06:35:01.930Z,618.001
2022-09-03T06:40:02.084Z,1038.16
2022-09-03T06:45:01.845Z,2761.916
2022-09-03T06:50:02.003Z,2676.539
2022-09-03T06:55:01.943Z,3345.77
2022-09-03T07:00:01.895Z,5660.175
2022-09-03T07:05:01.962Z,1927.598
2022-09-03T07:10:01.862Z,542.389
2022-09-03T07:15:01.954Z,1765.981
2022-09-03T07:20:01.873Z,2169.259
2022-09-03T07:25:01.872Z,2620.3
2022-09-03T07:30:01.912Z,1254.353
2022-09-03T07:35:02.061Z,336.063
2022-09-03T07:40:01.996Z,495.832
2022-09-03T07:45:01.886Z,428.635
2022-09-03T07:50:01.923Z,514.32
2022-09-03T07:55:02.134Z,392.762
2022-09-03T08:00:01.908Z,338.004
2022-09-03T08:05:02.100Z,473.022
2022-09-03T08:10:02.163Z,2963.698
2022-09-03T08:15:01.908Z,2600.089
2022-09-03T08:20:01.909Z,187.234
2022-09-03T08:25:01.920Z,266.71500000000003
2022-09-03T08:30:02.116Z,315.773
2022-09-03T08:35:01.966Z,431.53700000000003
2022-09-03T08:40:02.214Z,377.594
2022-09-03T08:45:02.069Z,311.55
2022-09-03T08:50:01.941Z,289.238
2022-09-03T08:55:01.953Z,210.282
2022-09-03T09:00:02.047Z,201.898
2022-09-03T09:05:02.146Z,462.231
2022-09-03T09:10:01.967Z,802.59
2022-09-03T09:15:02.033Z,681.163
2022-09-03T09:20:02.241Z,322.622
2022-09-03T09:25:02.043Z,287.447
2022-09-03T09:30:02.061Z,196.761
2022-09-03T09:35:01.963Z,172.726
2022-09-03T09:40:02.245Z,172.606
2022-09-03T09:45:01.987Z,195.162
2022-09-03T09:50:02.061Z,349.776
2022-09-03T09:55:02.123Z,290.261
2022-09-03T10:00:01.968Z,340.837
2022-09-03T10:05:02.049Z,373
2022-09-03T10:10:02.018Z,454.165
2022-09-03T10:15:02.271Z,2144.597
2022-09-03T10:20:02.009Z,4674.336
2022-09-03T10:25:02.049Z,3957.168
2022-09-03T10:30:02.138Z,3118.677
2022-09-03T10:35:02.034Z,2589.2960000000003
2022-09-03T10:40:02.068Z,1233.4
2022-09-03T10:45:02.063Z,1060.084
2022-09-03T10:50:02.366Z,1034.483
2022-09-03T10:55:02.055Z,461.497
2022-09-03T11:00:02.063Z,821.3720000000001
2022-09-03T11:05:02.178Z,1146.199
2022-09-03T11:10:02.071Z,1060.535
2022-09-03T11:15:02.090Z,801.01
2022-09-03T11:20:02.236Z,763.902
2022-09-03T11:25:02.340Z,578.1370000000001
2022-09-03T11:30:02.051Z,1554.297
2022-09-03T11:35:02.090Z,1061.131
2022-09-03T11:40:02.360Z,589.195
2022-09-03T11:45:02.085Z,905.83
2022-09-03T11:50:02.153Z,576.077
2022-09-03T11:55:02.276Z,814.4440000000001
2022-09-03T12:00:02.225Z,554.009
2022-09-03T12:05:05.180Z,700.072
2022-09-03T12:20:02.295Z,576.535
2022-09-03T12:25:02.172Z,476.38300000000004
2022-09-03T12:30:02.405Z,545.048
2022-09-03T12:35:02.160Z,758.689
2022-09-03T12:40:07.228Z,801.758
2022-09-03T12:45:02.293Z,763.639
2022-09-03T12:50:02.182Z,989.453
2022-09-03T12:55:02.170Z,911.903
2022-09-03T13:00:02.171Z,1066.233
2022-09-03T13:05:02.292Z,907.352
2022-09-03T13:10:02.146Z,1172.271
2022-09-03T13:15:02.209Z,1085.934
2022-09-03T13:20:02.263Z,1070.758
2022-09-03T13:25:02.185Z,998.3190000000001
2022-09-03T13:30:02.171Z,1198.8
2022-09-03T13:35:02.312Z,1156.301
2022-09-03T13:40:02.393Z,1218.301
2022-09-03T13:45:02.222Z,1124.714
2022-09-03T13:50:02.201Z,1087.33
2022-09-03T13:55:02.364Z,1072.896
2022-09-03T14:00:02.243Z,989.089
2022-09-03T14:05:02.259Z,1410.864
2022-09-03T14:10:02.218Z,1269.698
2022-09-03T14:15:02.411Z,2966.705
2022-09-03T14:20:02.228Z,3835.741
2022-09-03T14:25:02.350Z,2616.58
2022-09-03T14:30:02.392Z,1045.638
2022-09-03T14:35:02.246Z,1090.26
2022-09-03T14:40:02.545Z,1022.3290000000001
2022-09-03T14:45:02.515Z,1075.375
2022-09-03T14:50:02.287Z,1131.108
2022-09-03T14:55:02.248Z,1024.164
2022-09-03T15:00:02.435Z,2023.762
2022-09-03T15:05:02.360Z,3021.469
2022-09-03T15:10:02.572Z,4465.653
2022-09-03T15:15:02.259Z,2649.399
2022-09-03T15:20:02.336Z,2825.9700000000003
2022-09-03T15:25:02.245Z,3843.0950000000003
2022-09-03T15:30:02.387Z,3194.094
2022-09-03T15:35:02.537Z,3168.952
2022-09-03T15:40:02.318Z,2866.8650000000002
2022-09-03T15:45:02.353Z,4301.228
2022-09-03T15:50:02.529Z,3113.5170000000003
2022-09-03T15:55:02.374Z,1464.1960000000001
2022-09-03T16:00:02.336Z,3990.194
2022-09-03T16:05:02.566Z,990.863
2022-09-03T16:10:23.609Z,895.008
2022-09-03T16:15:02.315Z,886.553
2022-09-03T16:20:02.529Z,884.039
2022-09-03T16:25:02.323Z,884.98
2022-09-03T16:30:02.348Z,917.331
2022-09-03T16:35:02.522Z,1006.543
2022-09-03T16:40:02.382Z,683.77
2022-09-03T16:45:02.336Z,718.215
2022-09-03T16:50:02.465Z,871.6850000000001
2022-09-03T16:55:02.383Z,876.24
2022-09-03T17:00:02.369Z,1029.267
2022-09-03T17:05:02.420Z,443.361
2022-09-03T17:10:02.360Z,801.6850000000001
2022-09-03T17:15:02.350Z,1003.067
2022-09-03T17:20:02.415Z,2192.487
2022-09-03T17:25:02.661Z,910.611
2022-09-03T17:30:02.425Z,1941.868
2022-09-03T17:35:02.461Z,651.6510000000001
2022-09-03T17:40:02.709Z,1314.5040000000001
2022-09-03T17:45:02.386Z,1051.511
2022-09-03T17:50:02.469Z,1823.757
2022-09-03T17:55:02.455Z,3715.385
2022-09-03T18:00:02.767Z,3368.924
2022-09-03T18:05:02.478Z,1161.578
2022-09-03T18:10:02.461Z,1058.8790000000001
2022-09-03T18:15:02.655Z,1135.519
2022-09-03T18:20:02.413Z,946.732
2022-09-03T18:25:02.452Z,1058.018
2022-09-03T18:30:02.796Z,1593.347
2022-09-03T18:35:02.455Z,1605.993
2022-09-03T18:40:02.437Z,1516.737
2022-09-03T18:45:20.117Z,1178.432
2022-09-03T18:50:02.521Z,1243.055
2022-09-03T18:55:08.153Z,1167.9370000000001
2022-09-03T19:00:02.499Z,1062.946
2022-09-03T19:05:02.652Z,1050.868
2022-09-03T19:10:02.499Z,1057.7450000000001
2022-09-03T19:15:02.480Z,1180.221
2022-09-03T19:20:02.761Z,1059.003
2022-09-03T19:25:02.481Z,1176.862
2022-09-03T19:30:02.732Z,1121.615
2022-09-03T19:35:02.595Z,1003.856
2022-09-03T19:40:02.570Z,1016.2230000000001
2022-09-03T19:45:02.544Z,990.898
2022-09-03T19:50:02.503Z,931.77
2022-09-03T19:55:02.712Z,928.615
2022-09-03T20:00:02.562Z,938.462
2022-09-03T20:05:02.643Z,1071.92
2022-09-03T20:10:02.548Z,833.648
2022-09-03T20:15:02.485Z,856.8530000000001
2022-09-03T20:20:02.557Z,525.344
2022-09-03T20:25:02.592Z,485.951
2022-09-03T20:30:02.794Z,623.225
2022-09-03T20:35:02.562Z,697.078
2022-09-03T20:40:02.577Z,364.858
2022-09-03T20:45:02.757Z,311.834
2022-09-03T20:50:02.838Z,2864.0750000000003
2022-09-03T20:55:02.566Z,2161.777
2022-09-03T21:00:02.609Z,356.017
2022-09-03T21:05:02.576Z,429.764
2022-09-03T21:10:02.866Z,6948.148
2022-09-03T21:15:02.619Z,8152.783
2022-09-03T21:20:02.707Z,7783.908
2022-09-03T21:25:02.709Z,7813.544
2022-09-03T21:30:02.815Z,8147.937
2022-09-03T21:35:02.563Z,7869.294
2022-09-03T21:40:04.539Z,7745.403
2022-09-03T21:45:02.709Z,7977.9980000000005
2022-09-03T21:50:02.825Z,8271.15
2022-09-03T21:55:02.596Z,7847.941
2022-09-03T22:00:02.674Z,7813.186000000001
2022-09-03T22:05:02.828Z,7925.76
2022-09-03T22:10:02.611Z,8109.984
2022-09-03T22:15:02.628Z,7718.256
2022-09-03T22:20:02.771Z,7719.4130000000005
2022-09-03T22:25:02.831Z,7918.767
2022-09-03T22:30:02.687Z,8167.5070000000005
2022-09-03T22:35:02.622Z,7788.887
2022-09-03T22:40:02.689Z,2367.946
2022-09-03T22:45:02.785Z,950.326
2022-09-03T22:50:02.675Z,2822.451
2022-09-03T22:55:02.660Z,2401.434
2022-09-03T23:00:02.643Z,2245.195
2022-09-03T23:05:02.819Z,297.128
2022-09-03T23:10:02.691Z,626.282
2022-09-03T23:15:02.746Z,318.369
2022-09-03T23:25:02.966Z,311.38800000000003
2022-09-03T23:30:02.710Z,701.703
2022-09-03T23:35:02.675Z,262.41
2022-09-03T23:40:02.804Z,179.985
2022-09-03T23:45:02.925Z,177.942
2022-09-03T23:50:02.730Z,583.663
2022-09-03T23:55:02.735Z,283.54200000000003
